This is the latest recevied weather packets stored in our database for station/object N9OJR. If no packets are shown the sender has not sent any weather packets the latest 1 day(s).
| Time | Temp. | Humidity | Pressure | Rain* | Wind** | Luminosity | Snow |
|---|---|---|---|---|---|---|---|
| 1777981083 | 16.11° C | 78% | 1002.8 hPa | 0 mm | 0.45 m/s, 30° | 10 W/m² | - |
| 1777980779 | 16.11° C | 77% | 1003 hPa | 0 mm | 0.89 m/s, 259° | 8 W/m² | - |
| 1777980474 | 16.11° C | 77% | 1003 hPa | 0 mm | 0.45 m/s, 253° | 15 W/m² | - |
| 1777980172 | 16.11° C | 77% | 1002.8 hPa | 0 mm | 0.45 m/s, 233° | 19 W/m² | - |
| 1777979867 | 16.11° C | 76% | 1002.8 hPa | 0 mm | 0.45 m/s, 262° | 16 W/m² | - |
| 1777979563 | 16.11° C | 76% | 1002.8 hPa | 0 mm | 0.89 m/s, 279° | 13 W/m² | - |
| 1777979259 | 16.11° C | 77% | 1002.9 hPa | 0 mm | 0.45 m/s, 212° | 12 W/m² | - |
| 1777978957 | 16.11° C | 77% | 1002.7 hPa | 0 mm | 0.45 m/s, 73° | 13 W/m² | - |
| 1777978653 | 16.11° C | 78% | 1002.8 hPa | 0 mm | 0 m/s | 10 W/m² | - |
| 1777978349 | 16.11° C | 78% | 1002.8 hPa | 0 mm | 0.45 m/s, 247° | 10 W/m² | - |
| 1777978046 | 16.11° C | 78% | 1002.8 hPa | 0 mm | 0 m/s | 7 W/m² | - |
| 1777977743 | 16.11° C | 78% | 1002.7 hPa | 0 mm | 0.45 m/s, 211° | 3 W/m² | - |
| 1777977439 | 16.11° C | 77% | 1002.7 hPa | 0 mm | 0.45 m/s, 248° | 3 W/m² | - |
| 1777977137 | 16.11° C | 77% | 1002.7 hPa | 0 mm | 0 m/s | 3 W/m² | - |
| 1777976834 | 16.11° C | 77% | 1002.5 hPa | 0 mm | 0.45 m/s, 211° | 1 W/m² | - |
| 1777976532 | 16.11° C | 78% | 1002.4 hPa | 0 mm | 0.45 m/s, 250° | 0 W/m² | - |
| 1777976231 | 16.11° C | 77% | 1002.5 hPa | 0 mm | 0.45 m/s, 275° | 0 W/m² | - |
| 1777975926 | 16.11° C | 77% | 1002.4 hPa | 0 mm | 0 m/s | 0 W/m² | - |
| 1777975623 | 16.11° C | 77% | 1002.4 hPa | 0 mm | 0 m/s | 0 W/m² | - |
| 1777975320 | 16.11° C | 77% | 1002.4 hPa | 0 mm | 0 m/s | 0 W/m² | - |
| 1777975015 | 16.11° C | 76% | 1002.4 hPa | 0 mm | 0.45 m/s, 318° | 0 W/m² | - |
| 1777974714 | 16.11° C | 77% | 1002.4 hPa | 0 mm | 0.45 m/s, 312° | 0 W/m² | - |
| 1777974409 | 16.11° C | 76% | 1002.4 hPa | 0 mm | 0 m/s | 0 W/m² | - |
| 1777974106 | 16.11° C | 76% | 1002.3 hPa | 0 mm | 0.89 m/s, 12° | 0 W/m² | - |
| 1777973802 | 16.67° C | 76% | 1002.1 hPa | 0 mm | 0 m/s | 0 W/m² | - |
* Rain latest hour (hover to see other rain measurements)
** Current wind speed in m/s (hover to see current wind gust speed)